Details From CYEK - Arviat
To CYZS - Coral Harbour
Flight Number -
Tags Generated
Created
Modified
Stats Distance 349 nm / 646 km
Max Altitude 0 ft / 0 m
Waypoints 2
Social Downloads 1
Likes 0
Share VATSIM

Download

Looking for another format? Having issues loading an existing format? Contact us
Advertisement - Login to hide

Notes

Generated

Route

CYEK CYZS

ID Type Via Altitude Latitude Longitude Leg Dist Tot Dist Heading (true) Name
O CYEK APT - 0 ft / 0 m 61.09886˚ -94.07665˚ - 0 nm - -
O CYZS APT - 0 ft / 0 m 64.19953˚ -83.36607˚ 348 nm 348 nm 53° / 63° -

Altitude Profile

Advertisement - Login to hide

Weather


0- 5 10 15 20 25 30 35+ Temperature / ° C

Clouds and Precipitation
Forecast for 2017-12-14 18:00 UTC. Updated 2 hours ago

Ground ~20,000 ft ~40,000 ft Winds

CYEK

Details ICAO CYEK (YEK)
Name ARVIAT
Region Canada
Timezone America/Rankin_Inlet (UTC-6.0)
Stats Elevation 32 ft / 10 m (AMSL)
Location 61.094167° -94.070834°
Runways 1
Magnetic Variation 3.188° W

METAR

CYEK 141700Z 34013G19KT 10SM DRSN BKN060 M20/M23 A3005 RMK SC5 SLP180

Decode

TAF

TAF AMD TAF AMD CYEK 141302Z 1413/1424 33017KT P6SM SCT020 OVC040 TEMPO 1413/1422 11/2SM -SN BLSN OVC020 PROB30 1413/1418 3/4SM BLSN FM142200 33015KT P6SM SCT020 BKN040 TEMPO 1422/1424 4SM -SN BKN020 RMK NXT FCST BY 141800Z

Decode

Departure Runways

ID Width Length Bearing (true) Bearing (mag) Surface Threshold Offset Overrun Length
15T 100 ft / 30 m 3,991 ft / 1,216 m 149.03° 152.22° Gravel 0 ft / 0 m 0 ft / 0 m
33T 100 ft / 30 m 3,991 ft / 1,216 m 329.05° 332.24° Gravel 0 ft / 0 m 0 ft / 0 m

CYZS

Details ICAO CYZS
Name CORAL HARBOUR
Region Canada
Timezone America/Coral_Harbour (UTC-5.0)
Stats Elevation 210 ft / 64 m (AMSL)
Location 64.193333° -83.359446°
Runways 1
Magnetic Variation 18.859° W

METAR

CYZS 141700Z 04015G21KT 15SM -SN OVC020 M15/M19 A2989 RMK SC8 SLP132

Decode

TAF

TAF CYZS 141238Z 1413/1501 06010KT 5SM -SN OVC015 TEMPO 1413/1501 P6SM NSW SCT015 OVC030 BECMG 1417/1419 03015KT RMK NXT FCST BY 141900Z

Decode

Destination Runways

ID Width Length Bearing (true) Bearing (mag) Surface Threshold Offset Overrun Length
16T 100 ft / 30 m 4,987 ft / 1,520 m 155.02° 173.88° Gravel 0 ft / 0 m 0 ft / 0 m
34T 100 ft / 30 m 4,987 ft / 1,520 m 335.03° 353.89° Gravel 0 ft / 0 m 0 ft / 0 m